createdAt,value
2023-05-14T00:00:16.340Z,12.09
2023-05-14T00:01:18.643Z,12.16
2023-05-14T00:02:20.738Z,12.10
2023-05-14T00:03:22.714Z,12.15
2023-05-14T00:04:24.728Z,12.01
2023-05-14T00:05:26.747Z,12.13
2023-05-14T00:06:28.953Z,12.10
2023-05-14T00:07:31.137Z,12.03
2023-05-14T00:08:33.116Z,12.03
2023-05-14T00:09:35.529Z,12.04
2023-05-14T00:10:37.384Z,12.07
2023-05-14T00:11:39.563Z,11.85
2023-05-14T00:12:41.467Z,11.90
2023-05-14T00:13:43.531Z,11.83
2023-05-14T00:14:45.562Z,11.90
2023-05-14T00:15:47.408Z,11.84
2023-05-14T00:16:50.322Z,11.83
2023-05-14T00:17:52.233Z,11.96
2023-05-14T00:18:54.243Z,12.00
2023-05-14T00:19:56.213Z,11.95
2023-05-14T00:20:58.090Z,12.03
2023-05-14T00:22:00.510Z,12.03
2023-05-14T00:23:02.554Z,11.95
2023-05-14T00:24:04.617Z,11.95
2023-05-14T00:25:07.973Z,11.95
2023-05-14T00:26:09.867Z,11.97
2023-05-14T00:27:13.997Z,11.83
2023-05-14T00:28:16.252Z,11.95
2023-05-14T00:29:18.083Z,11.98
2023-05-14T00:30:20.206Z,11.97
2023-05-14T00:31:22.069Z,11.87
2023-05-14T00:32:24.513Z,11.93
2023-05-14T00:33:26.769Z,11.85
2023-05-14T00:34:28.720Z,11.74
2023-05-14T00:35:30.713Z,11.77
2023-05-14T00:36:32.618Z,11.74
2023-05-14T00:37:34.898Z,11.70
2023-05-14T00:38:37.076Z,11.79
2023-05-14T00:39:39.083Z,11.77
2023-05-14T00:40:45.595Z,11.89
2023-05-14T00:41:47.432Z,11.91
2023-05-14T00:42:49.557Z,11.86
2023-05-14T00:43:51.528Z,11.84
2023-05-14T00:44:53.530Z,11.91
2023-05-14T00:45:56.111Z,11.95
2023-05-14T00:46:59.072Z,12.02
2023-05-14T00:48:02.309Z,11.83
2023-05-14T00:49:04.324Z,11.98
2023-05-14T00:50:06.928Z,12.01
2023-05-14T00:51:08.795Z,11.91
2023-05-14T00:52:11.827Z,11.87
2023-05-14T00:53:14.383Z,11.93
2023-05-14T00:54:17.365Z,11.93
2023-05-14T00:55:19.792Z,11.95
2023-05-14T00:56:22.315Z,11.89
2023-05-14T00:57:24.367Z,11.73
2023-05-14T00:58:26.828Z,11.71
2023-05-14T00:59:28.989Z,11.75
2023-05-14T01:00:30.903Z,11.85
2023-05-14T01:01:32.924Z,11.86
2023-05-14T01:02:34.980Z,11.80
2023-05-14T01:03:37.927Z,11.73
2023-05-14T01:04:40.290Z,11.81
2023-05-14T01:06:07.232Z,11.85
2023-05-14T01:07:18.233Z,11.95
2023-05-14T01:08:43.620Z,11.84
2023-05-14T01:10:00.607Z,11.76
2023-05-14T01:11:12.816Z,11.68
2023-05-14T01:12:27.467Z,11.85
2023-05-14T01:13:51.840Z,11.84
2023-05-14T01:15:19.959Z,11.75
2023-05-14T01:16:25.194Z,11.76
2023-05-14T01:17:30.143Z,11.83
2023-05-14T01:18:33.255Z,11.82
2023-05-14T01:19:40.084Z,11.81
2023-05-14T01:20:42.350Z,11.87
2023-05-14T01:21:44.261Z,11.75
2023-05-14T01:22:46.163Z,11.69
2023-05-14T01:23:48.085Z,11.78
2023-05-14T01:24:49.908Z,11.82
2023-05-14T01:25:52.125Z,11.80
2023-05-14T01:26:58.695Z,11.80
2023-05-14T01:28:13.081Z,11.69
2023-05-14T01:29:23.974Z,11.70
2023-05-14T01:30:37.474Z,11.73
2023-05-14T01:31:44.296Z,11.67
2023-05-14T01:32:50.328Z,11.69
2023-05-14T01:33:53.029Z,11.76
2023-05-14T01:34:58.069Z,11.76
2023-05-14T01:36:00.684Z,11.74
2023-05-14T01:37:04.154Z,11.64
2023-05-14T01:38:09.672Z,11.54
2023-05-14T01:39:13.908Z,11.50
2023-05-14T01:40:15.937Z,11.50
2023-05-14T01:41:19.493Z,11.50
2023-05-14T01:42:22.030Z,11.54
2023-05-14T01:43:24.232Z,11.55
2023-05-14T01:44:26.407Z,11.57
2023-05-14T01:45:30.786Z,11.51
2023-05-14T01:46:33.631Z,11.63
2023-05-14T01:47:36.066Z,11.61
2023-05-14T01:48:38.032Z,11.56
2023-05-14T01:49:39.956Z,11.59
2023-05-14T01:50:41.983Z,11.63
2023-05-14T01:51:44.052Z,11.54
2023-05-14T01:52:46.779Z,11.54
2023-05-14T01:53:48.660Z,11.62
2023-05-14T01:54:50.481Z,11.58
2023-05-14T01:55:52.417Z,11.54
2023-05-14T01:56:54.517Z,11.57
2023-05-14T01:57:56.795Z,11.45
2023-05-14T01:58:58.661Z,11.47
2023-05-14T02:00:00.783Z,11.44
2023-05-14T02:01:04.270Z,11.45
2023-05-14T02:02:06.552Z,11.49
2023-05-14T02:03:08.434Z,11.41
2023-05-14T02:04:10.395Z,11.46
2023-05-14T02:05:13.474Z,11.37
2023-05-14T02:06:15.383Z,11.40
2023-05-14T02:07:17.552Z,11.36
2023-05-14T02:08:21.208Z,11.37
2023-05-14T02:09:23.343Z,11.43
2023-05-14T02:10:25.581Z,11.44
2023-05-14T02:11:27.946Z,11.50
2023-05-14T02:12:29.986Z,11.51
2023-05-14T02:13:31.953Z,11.43
2023-05-14T02:14:33.798Z,11.45
2023-05-14T02:15:35.694Z,11.51
2023-05-14T02:16:37.981Z,11.43
2023-05-14T02:17:39.875Z,11.47
2023-05-14T02:18:41.788Z,11.44
2023-05-14T02:19:44.690Z,11.47
2023-05-14T02:20:47.014Z,11.36
2023-05-14T02:21:49.188Z,11.51
2023-05-14T02:22:51.419Z,11.46
2023-05-14T02:23:53.268Z,11.47
2023-05-14T02:24:56.147Z,11.51
2023-05-14T02:25:58.008Z,11.46
2023-05-14T02:27:01.195Z,11.53
2023-05-14T02:28:03.116Z,11.46
2023-05-14T02:29:04.961Z,11.43
2023-05-14T02:30:07.512Z,11.29
2023-05-14T02:31:09.395Z,11.39
2023-05-14T02:32:11.629Z,11.52
2023-05-14T02:33:13.743Z,11.51
2023-05-14T02:34:16.283Z,11.48
2023-05-14T02:35:18.190Z,11.52
2023-05-14T02:36:20.044Z,11.52
2023-05-14T02:37:22.358Z,11.53
2023-05-14T02:38:24.335Z,11.39
2023-05-14T02:39:26.360Z,11.44
2023-05-14T02:40:28.237Z,11.41
2023-05-14T02:41:30.319Z,11.37
2023-05-14T02:42:32.456Z,11.35
2023-05-14T02:43:34.320Z,11.45
2023-05-14T02:44:36.228Z,11.41
2023-05-14T02:45:38.054Z,11.41
2023-05-14T02:46:40.208Z,11.45
2023-05-14T02:47:43.631Z,11.55
2023-05-14T02:48:45.593Z,11.47
2023-05-14T02:49:47.644Z,11.44
2023-05-14T02:50:52.610Z,11.55
2023-05-14T02:51:54.505Z,11.62
2023-05-14T02:52:56.691Z,11.64
2023-05-14T02:53:58.550Z,11.52
2023-05-14T02:55:00.540Z,11.67
2023-05-14T02:56:02.540Z,11.52
2023-05-14T02:57:04.528Z,11.51
2023-05-14T02:58:06.772Z,11.49
2023-05-14T02:59:08.588Z,11.49
2023-05-14T03:00:11.813Z,11.53
2023-05-14T03:01:14.876Z,11.48
2023-05-14T03:02:17.383Z,11.50
2023-05-14T03:03:20.446Z,11.46
2023-05-14T03:04:22.725Z,11.44
2023-05-14T03:05:24.753Z,11.43
2023-05-14T03:06:26.601Z,11.47
2023-05-14T03:07:28.421Z,11.43
2023-05-14T03:08:30.576Z,11.48
2023-05-14T03:09:32.609Z,11.47
2023-05-14T03:10:34.537Z,11.39
2023-05-14T03:11:36.393Z,11.42
2023-05-14T03:12:38.249Z,11.44
2023-05-14T03:13:40.478Z,11.45
2023-05-14T03:14:42.416Z,11.38
2023-05-14T03:15:44.667Z,11.43
2023-05-14T03:16:46.639Z,11.41
2023-05-14T03:17:49.226Z,11.40
2023-05-14T03:18:51.493Z,11.44
2023-05-14T03:19:53.352Z,11.40
2023-05-14T03:20:55.207Z,11.49
2023-05-14T03:21:57.082Z,11.40
2023-05-14T03:22:59.042Z,11.46
2023-05-14T03:24:01.413Z,11.39
2023-05-14T03:25:03.348Z,11.44
2023-05-14T03:26:05.289Z,11.45
2023-05-14T03:27:07.165Z,11.50
2023-05-14T03:28:09.776Z,11.45
2023-05-14T03:29:11.955Z,11.47
2023-05-14T03:30:15.205Z,11.47
2023-05-14T03:31:17.148Z,11.39
2023-05-14T03:32:19.397Z,11.42
2023-05-14T03:33:21.435Z,11.35
2023-05-14T03:34:23.732Z,11.29
2023-05-14T03:35:25.700Z,11.24
2023-05-14T03:36:27.606Z,11.31
2023-05-14T03:37:29.537Z,11.35
2023-05-14T03:38:31.431Z,11.26
2023-05-14T03:39:33.763Z,11.39
2023-05-14T03:40:35.676Z,11.46
2023-05-14T03:41:37.768Z,11.47
2023-05-14T03:42:39.714Z,11.58
2023-05-14T03:43:41.604Z,11.53
2023-05-14T03:44:43.980Z,11.52
2023-05-14T03:45:46.174Z,11.53
2023-05-14T03:46:48.030Z,11.45
2023-05-14T03:47:50.441Z,11.45
2023-05-14T03:48:52.338Z,11.48
2023-05-14T03:49:54.751Z,11.53
2023-05-14T03:50:56.764Z,11.46
2023-05-14T03:51:59.454Z,11.36
2023-05-14T03:53:01.438Z,11.29
2023-05-14T03:54:05.040Z,11.38
2023-05-14T03:55:08.110Z,11.35
2023-05-14T03:56:11.181Z,11.30
2023-05-14T03:57:13.039Z,11.45
2023-05-14T03:58:16.021Z,11.43
2023-05-14T03:59:18.247Z,11.45
2023-05-14T04:00:21.485Z,11.42
2023-05-14T04:01:23.700Z,11.42
2023-05-14T04:02:26.063Z,11.33
2023-05-14T04:03:28.104Z,11.37
2023-05-14T04:04:30.228Z,11.29
2023-05-14T04:05:32.138Z,11.41
2023-05-14T04:06:34.025Z,11.25
2023-05-14T04:07:37.054Z,11.37
2023-05-14T04:08:38.908Z,11.33
2023-05-14T04:09:40.945Z,11.39
2023-05-14T04:10:43.294Z,11.47
2023-05-14T04:11:45.386Z,11.48
2023-05-14T04:12:47.813Z,11.47
2023-05-14T04:13:49.898Z,11.48
2023-05-14T04:14:51.844Z,11.47
2023-05-14T04:15:53.851Z,11.47
2023-05-14T04:16:55.772Z,11.44
2023-05-14T04:17:58.098Z,11.45
2023-05-14T04:19:02.600Z,11.45
2023-05-14T04:20:04.999Z,11.42
2023-05-14T04:21:06.953Z,11.46
2023-05-14T04:22:08.761Z,11.46
2023-05-14T04:23:10.964Z,11.36
2023-05-14T04:24:12.815Z,11.41
2023-05-14T04:25:14.700Z,11.44
2023-05-14T04:26:16.619Z,11.46
2023-05-14T04:27:21.307Z,11.48
2023-05-14T04:28:23.604Z,11.54
2023-05-14T04:29:25.490Z,11.43
2023-05-14T04:30:27.436Z,11.47
2023-05-14T04:31:30.489Z,11.50
2023-05-14T04:32:32.450Z,11.55
2023-05-14T04:33:34.625Z,11.54
2023-05-14T04:34:36.486Z,11.56
2023-05-14T04:35:38.496Z,11.54
2023-05-14T04:36:40.339Z,11.52
2023-05-14T04:37:42.186Z,11.47
2023-05-14T04:38:44.373Z,11.38
2023-05-14T04:39:46.299Z,11.40
2023-05-14T04:40:48.096Z,11.50
2023-05-14T04:41:49.941Z,11.44
2023-05-14T04:42:51.828Z,11.45
2023-05-14T04:43:56.636Z,11.51
2023-05-14T04:44:58.745Z,11.56
2023-05-14T04:46:00.757Z,11.54
2023-05-14T04:47:02.905Z,11.53
2023-05-14T04:48:05.133Z,11.48
2023-05-14T04:49:07.315Z,11.50
2023-05-14T04:50:09.828Z,11.45
2023-05-14T04:51:11.679Z,11.47
2023-05-14T04:52:13.911Z,11.47
2023-05-14T04:53:15.775Z,11.47
2023-05-14T04:54:17.991Z,11.45
2023-05-14T04:55:19.910Z,11.51
2023-05-14T04:56:22.010Z,11.55
2023-05-14T04:57:23.995Z,11.48
2023-05-14T04:58:28.837Z,11.57
2023-05-14T04:59:31.628Z,11.61
2023-05-14T05:00:35.030Z,11.50
2023-05-14T05:01:36.959Z,11.46
2023-05-14T05:02:38.888Z,11.57
2023-05-14T05:03:40.973Z,11.57
2023-05-14T05:04:43.310Z,11.53
2023-05-14T05:05:45.109Z,11.55
2023-05-14T05:06:47.107Z,11.58
2023-05-14T05:07:48.974Z,11.66
2023-05-14T05:08:50.835Z,11.54
2023-05-14T05:09:52.980Z,11.54
2023-05-14T05:10:54.805Z,11.55
2023-05-14T05:11:56.679Z,11.45
2023-05-14T05:12:58.561Z,11.55
2023-05-14T05:14:00.595Z,11.63
2023-05-14T05:15:02.865Z,11.63
2023-05-14T05:16:05.015Z,11.71
2023-05-14T05:17:06.995Z,11.71
2023-05-14T05:18:08.977Z,11.69
2023-05-14T05:19:11.055Z,11.60
2023-05-14T05:20:13.863Z,11.60
2023-05-14T05:21:16.285Z,11.63
2023-05-14T05:22:20.125Z,11.69
2023-05-14T05:23:22.286Z,11.65
2023-05-14T05:24:24.612Z,11.62
2023-05-14T05:25:29.538Z,11.66
2023-05-14T05:26:31.806Z,11.73
2023-05-14T05:27:33.884Z,11.69
2023-05-14T05:28:35.708Z,11.68
2023-05-14T05:29:37.892Z,11.63
2023-05-14T05:30:41.110Z,11.60
2023-05-14T05:31:43.091Z,11.58
2023-05-14T05:32:45.508Z,11.64
2023-05-14T05:33:47.738Z,11.64
2023-05-14T05:34:51.901Z,11.68
2023-05-14T05:35:54.239Z,11.64
2023-05-14T05:36:56.126Z,11.60
2023-05-14T05:38:00.526Z,11.62
2023-05-14T05:39:03.384Z,11.66
2023-05-14T05:40:06.553Z,11.65
2023-05-14T05:41:08.661Z,11.73
2023-05-14T05:42:10.582Z,11.66
2023-05-14T05:43:13.885Z,11.70
2023-05-14T05:44:15.725Z,11.64
2023-05-14T05:45:17.583Z,11.74
2023-05-14T05:46:19.721Z,11.68
2023-05-14T05:47:21.662Z,11.63
2023-05-14T05:48:23.533Z,11.71
2023-05-14T05:49:26.131Z,11.73
2023-05-14T05:50:27.986Z,11.73
2023-05-14T05:51:30.239Z,11.78
2023-05-14T05:52:32.192Z,11.80
2023-05-14T05:53:34.018Z,11.81
2023-05-14T05:54:35.992Z,11.83
2023-05-14T05:55:37.932Z,11.76
2023-05-14T05:56:40.158Z,11.83
2023-05-14T05:57:42.015Z,11.78
2023-05-14T05:58:43.957Z,11.78
2023-05-14T05:59:46.814Z,11.78
2023-05-14T06:00:49.084Z,11.77
2023-05-14T06:01:51.560Z,11.77
2023-05-14T06:02:53.562Z,11.65
2023-05-14T06:03:55.450Z,11.72
2023-05-14T06:04:57.453Z,11.71
2023-05-14T06:05:59.377Z,11.78
2023-05-14T06:07:01.659Z,11.68
2023-05-14T06:08:04.383Z,11.73
2023-05-14T06:09:07.064Z,11.82
2023-05-14T06:10:09.187Z,11.72
2023-05-14T06:11:11.066Z,11.73
2023-05-14T06:12:13.176Z,11.78
2023-05-14T06:13:15.037Z,11.87
2023-05-14T06:14:16.925Z,11.90
2023-05-14T06:15:18.830Z,11.89
2023-05-14T06:16:21.078Z,11.88
2023-05-14T06:17:26.861Z,11.89
2023-05-14T06:18:28.756Z,11.91
2023-05-14T06:19:30.681Z,11.85
2023-05-14T06:20:32.586Z,11.88
2023-05-14T06:21:34.553Z,11.85
2023-05-14T06:22:36.829Z,11.87
2023-05-14T06:23:38.643Z,11.95
2023-05-14T06:24:40.640Z,11.98
2023-05-14T06:25:42.481Z,11.96
2023-05-14T06:26:44.347Z,11.94
2023-05-14T06:27:46.612Z,11.89
2023-05-14T06:28:48.467Z,11.95
2023-05-14T06:29:50.306Z,11.88
2023-05-14T06:30:54.001Z,11.84
2023-05-14T06:32:01.302Z,11.90
2023-05-14T06:33:03.620Z,11.93
2023-05-14T06:34:05.591Z,11.94
2023-05-14T06:35:07.960Z,11.92
2023-05-14T06:36:10.039Z,11.97
2023-05-14T06:37:12.308Z,11.99
2023-05-14T06:38:14.504Z,12.02
2023-05-14T06:39:16.356Z,11.98
2023-05-14T06:40:18.840Z,12.01
2023-05-14T06:41:21.343Z,11.98
2023-05-14T06:42:23.358Z,12.01
2023-05-14T06:43:25.635Z,12.03
2023-05-14T06:44:27.619Z,12.03
2023-05-14T06:45:31.224Z,12.10
2023-05-14T06:46:35.052Z,12.13
2023-05-14T06:47:36.983Z,12.10
2023-05-14T06:48:39.311Z,12.08
2023-05-14T06:49:41.228Z,12.11
2023-05-14T06:50:43.069Z,12.06
2023-05-14T06:51:45.829Z,12.08
2023-05-14T06:52:48.202Z,12.10
2023-05-14T06:53:51.337Z,12.07
2023-05-14T06:54:53.231Z,12.12
2023-05-14T06:55:56.295Z,12.09
2023-05-14T06:56:58.136Z,12.20
2023-05-14T06:58:00.037Z,12.19
2023-05-14T06:59:02.352Z,12.12
2023-05-14T07:00:04.906Z,12.19
2023-05-14T07:01:06.811Z,12.21
2023-05-14T07:02:08.664Z,12.24
2023-05-14T07:03:10.627Z,12.20
2023-05-14T07:04:12.823Z,12.21
2023-05-14T07:05:15.101Z,12.28
2023-05-14T07:06:17.008Z,12.30
2023-05-14T07:07:21.159Z,12.40
2023-05-14T07:08:23.005Z,12.36
2023-05-14T07:09:25.132Z,12.25
2023-05-14T07:10:27.202Z,12.17
2023-05-14T07:11:29.279Z,12.24
2023-05-14T07:12:31.182Z,12.38
2023-05-14T07:13:33.123Z,12.39
2023-05-14T07:14:35.366Z,12.43
2023-05-14T07:15:37.274Z,12.50
2023-05-14T07:16:39.117Z,12.47
2023-05-14T07:17:41.163Z,12.49
2023-05-14T07:18:43.848Z,12.44
2023-05-14T07:19:47.223Z,12.53
2023-05-14T07:20:49.049Z,12.56
2023-05-14T07:21:51.044Z,12.56
2023-05-14T07:22:53.104Z,12.48
2023-05-14T07:23:54.963Z,12.44
2023-05-14T07:24:57.139Z,12.51
2023-05-14T07:25:59.120Z,12.50
2023-05-14T07:27:04.270Z,12.46
2023-05-14T07:28:06.292Z,12.46
2023-05-14T07:29:08.099Z,12.46
2023-05-14T07:30:10.590Z,12.51
2023-05-14T07:31:12.424Z,12.54
2023-05-14T07:32:15.619Z,12.56
2023-05-14T07:33:17.624Z,12.61
2023-05-14T07:34:19.646Z,12.73
2023-05-14T07:35:21.987Z,12.67
2023-05-14T07:36:24.111Z,12.74
2023-05-14T07:37:26.210Z,12.78
2023-05-14T07:38:28.274Z,12.69
2023-05-14T07:39:30.133Z,12.63
2023-05-14T07:40:32.255Z,12.64
2023-05-14T07:41:34.118Z,12.54
2023-05-14T07:42:37.291Z,12.59
2023-05-14T07:43:40.596Z,12.51
2023-05-14T07:44:42.520Z,12.53
2023-05-14T07:45:45.028Z,12.64
2023-05-14T07:46:47.612Z,12.76
2023-05-14T07:47:52.055Z,12.77
2023-05-14T07:48:54.281Z,12.84
2023-05-14T07:49:56.916Z,12.84
2023-05-14T07:50:59.237Z,12.91
2023-05-14T07:52:01.122Z,12.96
2023-05-14T07:53:03.036Z,13.11
2023-05-14T07:54:05.029Z,13.13
2023-05-14T07:55:07.326Z,13.23
2023-05-14T07:56:09.527Z,13.32
2023-05-14T07:57:11.317Z,13.33
2023-05-14T07:58:13.211Z,13.32
2023-05-14T07:59:15.074Z,13.42
2023-05-14T08:00:17.246Z,13.45
2023-05-14T08:01:19.672Z,13.45
2023-05-14T08:02:22.223Z,13.54
2023-05-14T08:03:24.383Z,13.43
2023-05-14T08:04:26.500Z,13.56
2023-05-14T08:05:28.392Z,13.47
2023-05-14T08:06:30.616Z,13.37
2023-05-14T08:07:33.695Z,13.51
2023-05-14T08:08:36.295Z,13.51
2023-05-14T08:09:38.236Z,13.57
2023-05-14T08:10:40.134Z,13.72
2023-05-14T08:11:42.359Z,13.74
2023-05-14T08:12:44.245Z,13.77
2023-05-14T08:13:46.103Z,13.86
2023-05-14T08:14:47.923Z,13.81
2023-05-14T08:15:49.777Z,13.78
2023-05-14T08:16:52.027Z,13.74
2023-05-14T08:17:53.865Z,13.77
2023-05-14T08:18:55.820Z,13.79
2023-05-14T08:19:57.716Z,13.79
2023-05-14T08:20:59.541Z,13.86
2023-05-14T08:22:01.694Z,13.80
2023-05-14T08:23:03.729Z,13.83
2023-05-14T08:24:05.806Z,13.79
2023-05-14T08:25:08.050Z,13.84
2023-05-14T08:26:09.869Z,13.74
2023-05-14T08:27:12.008Z,13.76
2023-05-14T08:28:13.870Z,13.73
2023-05-14T08:29:16.718Z,13.70
2023-05-14T08:30:18.726Z,13.69
2023-05-14T08:31:20.811Z,13.72
2023-05-14T08:32:24.189Z,13.80
2023-05-14T08:33:26.273Z,13.88
2023-05-14T08:34:28.753Z,13.90
2023-05-14T08:35:30.601Z,13.91
2023-05-14T08:36:32.899Z,13.99
2023-05-14T08:37:35.027Z,13.97
2023-05-14T08:38:36.858Z,14.11
2023-05-14T08:39:38.702Z,14.06
2023-05-14T08:40:40.610Z,13.99
2023-05-14T08:41:43.531Z,13.82
2023-05-14T08:42:46.034Z,13.95
2023-05-14T08:44:10.765Z,13.91
2023-05-14T08:45:21.373Z,14.02
2023-05-14T08:46:25.136Z,14.12
2023-05-14T08:47:28.784Z,14.12
2023-05-14T08:48:34.643Z,14.10
2023-05-14T08:49:42.688Z,13.99
2023-05-14T08:50:44.605Z,14.02
2023-05-14T08:51:50.058Z,14.12
2023-05-14T08:52:52.935Z,14.15
2023-05-14T08:53:55.512Z,14.14
2023-05-14T08:55:00.848Z,14.16
2023-05-14T08:56:04.715Z,14.04
2023-05-14T08:57:10.072Z,13.97
2023-05-14T08:58:11.992Z,13.90
2023-05-14T08:59:14.274Z,13.91
2023-05-14T09:00:16.484Z,13.82
2023-05-14T09:01:19.138Z,13.85
2023-05-14T09:02:25.020Z,13.89
2023-05-14T09:03:27.085Z,13.85
2023-05-14T09:04:30.072Z,13.92
2023-05-14T09:05:33.360Z,13.98
2023-05-14T09:06:37.801Z,13.93
2023-05-14T09:07:39.733Z,13.91
2023-05-14T09:08:41.900Z,13.93
2023-05-14T09:09:45.942Z,13.93
2023-05-14T09:10:47.884Z,13.89
2023-05-14T09:11:52.038Z,13.88
2023-05-14T09:12:53.984Z,13.89
2023-05-14T09:13:55.852Z,13.87
2023-05-14T09:14:57.998Z,13.79
2023-05-14T09:16:00.885Z,13.81
2023-05-14T09:17:03.490Z,13.94
2023-05-14T09:18:06.394Z,13.88
2023-05-14T09:19:08.721Z,13.78
2023-05-14T09:20:13.128Z,13.94
2023-05-14T09:21:15.897Z,13.97
2023-05-14T09:22:18.291Z,13.99
2023-05-14T09:23:20.149Z,13.81
2023-05-14T09:24:24.040Z,13.80
2023-05-14T09:25:32.988Z,13.94
2023-05-14T09:26:35.608Z,13.86
2023-05-14T09:27:38.584Z,13.94
2023-05-14T09:28:41.964Z,13.98
2023-05-14T09:29:44.776Z,13.89
2023-05-14T09:30:52.222Z,13.89
2023-05-14T09:31:55.235Z,13.79
2023-05-14T09:32:57.167Z,13.88
2023-05-14T09:33:59.856Z,13.84
2023-05-14T09:35:10.178Z,13.83
2023-05-14T09:36:12.398Z,13.78
2023-05-14T09:37:14.252Z,13.88
2023-05-14T09:38:16.230Z,13.90
2023-05-14T09:39:18.087Z,13.77
2023-05-14T09:40:22.019Z,13.81
2023-05-14T09:41:24.859Z,13.84
2023-05-14T09:42:27.431Z,13.95
2023-05-14T09:43:29.251Z,13.77
2023-05-14T09:44:31.917Z,13.61
2023-05-14T09:45:35.145Z,13.62
2023-05-14T09:46:37.355Z,13.71
2023-05-14T09:47:39.884Z,13.71
2023-05-14T09:48:41.950Z,13.70
2023-05-14T09:49:43.935Z,13.75
2023-05-14T09:50:47.074Z,13.60
2023-05-14T09:51:50.098Z,13.59
2023-05-14T09:52:54.766Z,13.64
2023-05-14T09:53:57.408Z,13.62
2023-05-14T09:55:00.379Z,13.71
2023-05-14T09:56:02.305Z,13.66
2023-05-14T09:57:04.469Z,13.62
2023-05-14T09:58:06.471Z,13.70
2023-05-14T09:59:08.345Z,13.69
2023-05-14T10:00:12.979Z,13.67
2023-05-14T10:01:19.574Z,13.78
2023-05-14T10:02:37.544Z,13.88
2023-05-14T10:03:39.557Z,13.93
2023-05-14T10:04:41.853Z,13.82
2023-05-14T10:05:44.544Z,13.79
2023-05-14T10:06:51.818Z,13.77
2023-05-14T10:07:56.590Z,13.91
2023-05-14T10:09:02.921Z,13.88
2023-05-14T10:10:08.727Z,13.98
2023-05-14T10:11:20.714Z,13.89
2023-05-14T10:12:24.613Z,13.83
2023-05-14T10:13:36.233Z,14.19
2023-05-14T10:14:47.324Z,14.32
2023-05-14T10:15:57.139Z,14.27
2023-05-14T10:17:01.858Z,14.05
2023-05-14T10:18:10.279Z,14.06
2023-05-14T10:19:12.780Z,14.12
2023-05-14T10:20:16.826Z,14.08
2023-05-14T10:21:21.736Z,14.05
2023-05-14T10:22:27.611Z,14.09
2023-05-14T10:23:30.326Z,14.04
2023-05-14T10:24:33.598Z,13.97
2023-05-14T10:25:36.532Z,13.98
2023-05-14T10:26:40.881Z,14.00
2023-05-14T10:27:43.275Z,14.14
2023-05-14T10:28:45.945Z,14.11
2023-05-14T10:29:55.569Z,14.14
2023-05-14T10:30:57.829Z,14.13
2023-05-14T10:32:06.053Z,14.16
2023-05-14T10:33:11.734Z,14.13
2023-05-14T10:34:33.573Z,14.24
2023-05-14T10:36:01.059Z,14.24
2023-05-14T10:37:23.983Z,14.17
2023-05-14T10:38:36.392Z,14.25
2023-05-14T10:39:53.852Z,14.33
2023-05-14T10:41:01.670Z,14.37
2023-05-14T10:42:04.713Z,14.38
2023-05-14T10:43:08.676Z,14.35
2023-05-14T10:44:11.576Z,14.34
2023-05-14T10:45:15.107Z,14.39
2023-05-14T10:46:17.155Z,14.39
2023-05-14T10:47:20.035Z,14.40
2023-05-14T10:48:22.260Z,14.35
2023-05-14T10:49:39.706Z,14.34
2023-05-14T10:50:43.025Z,14.41
2023-05-14T10:51:49.463Z,14.42
2023-05-14T10:52:52.178Z,14.27
2023-05-14T10:53:54.998Z,14.32
2023-05-14T10:55:00.631Z,14.25
2023-05-14T10:56:12.872Z,14.36
2023-05-14T10:57:14.740Z,14.37
2023-05-14T10:58:17.929Z,14.33
2023-05-14T10:59:19.811Z,14.39
2023-05-14T11:00:27.810Z,14.38
2023-05-14T11:01:32.292Z,14.38
2023-05-14T11:02:39.270Z,14.40
2023-05-14T11:03:44.367Z,14.37
2023-05-14T11:05:03.970Z,14.38
2023-05-14T11:06:06.802Z,14.38
2023-05-14T11:07:09.239Z,14.17
2023-05-14T11:08:12.496Z,14.18
2023-05-14T11:09:17.661Z,14.28
2023-05-14T11:10:21.967Z,14.23
2023-05-14T11:11:26.060Z,14.17
2023-05-14T11:12:28.948Z,14.18
2023-05-14T11:13:31.249Z,14.18
2023-05-14T11:14:33.106Z,14.21
2023-05-14T11:15:36.091Z,14.20
2023-05-14T11:16:38.425Z,14.12
2023-05-14T11:17:42.736Z,14.10
2023-05-14T11:18:44.690Z,14.11
2023-05-14T11:19:47.041Z,14.22
2023-05-14T11:20:49.733Z,14.21
2023-05-14T11:21:51.635Z,14.22
2023-05-14T11:22:53.843Z,14.26
2023-05-14T11:23:57.505Z,14.22
2023-05-14T11:24:59.478Z,14.12
2023-05-14T11:26:01.751Z,14.13
2023-05-14T11:27:04.926Z,14.16
2023-05-14T11:28:07.612Z,14.14
2023-05-14T11:29:10.642Z,14.13
2023-05-14T11:30:14.555Z,14.14
2023-05-14T11:31:16.545Z,14.16
2023-05-14T11:32:20.473Z,14.20
2023-05-14T11:33:22.708Z,14.20
2023-05-14T11:34:24.754Z,14.12
2023-05-14T11:35:27.578Z,14.16
2023-05-14T11:36:29.397Z,14.06
2023-05-14T11:37:31.362Z,14.04
2023-05-14T11:38:33.639Z,13.98
2023-05-14T11:39:37.588Z,14.11
2023-05-14T11:40:39.542Z,14.11
2023-05-14T11:41:45.670Z,14.07
2023-05-14T11:42:50.797Z,14.05
2023-05-14T11:43:53.061Z,13.99
2023-05-14T11:44:55.193Z,14.07
2023-05-14T11:45:57.125Z,13.96
2023-05-14T11:47:01.270Z,13.96
2023-05-14T11:48:11.587Z,13.92
2023-05-14T11:49:13.754Z,13.98
2023-05-14T11:50:16.598Z,13.90
2023-05-14T11:51:18.537Z,13.98
2023-05-14T11:52:21.982Z,13.96
2023-05-14T11:53:28.449Z,13.80
2023-05-14T11:54:34.789Z,13.81
2023-05-14T11:55:36.858Z,13.82
2023-05-14T11:56:38.747Z,13.99
2023-05-14T11:57:41.210Z,13.85
2023-05-14T11:58:55.759Z,13.85
2023-05-14T11:59:58.077Z,13.84
2023-05-14T12:01:00.039Z,13.93
2023-05-14T12:02:05.014Z,13.79
2023-05-14T12:03:07.410Z,13.82
2023-05-14T12:04:09.849Z,13.84
2023-05-14T12:05:13.409Z,13.80
2023-05-14T12:06:15.495Z,13.76
2023-05-14T12:07:18.008Z,13.90
2023-05-14T12:08:26.488Z,13.81
2023-05-14T12:09:28.453Z,13.94
2023-05-14T12:10:30.364Z,13.84
2023-05-14T12:11:32.884Z,13.86
2023-05-14T12:12:37.134Z,13.86
2023-05-14T12:13:39.724Z,13.87
2023-05-14T12:14:42.978Z,13.85
2023-05-14T12:15:53.876Z,13.81
2023-05-14T12:16:55.682Z,13.77
2023-05-14T12:17:57.885Z,13.80
2023-05-14T12:19:01.761Z,13.77
2023-05-14T12:20:04.345Z,13.86
2023-05-14T12:21:09.279Z,13.78
2023-05-14T12:22:13.831Z,13.75
2023-05-14T12:23:15.948Z,13.82
2023-05-14T12:24:19.598Z,13.78
2023-05-14T12:25:21.536Z,13.69
2023-05-14T12:26:23.656Z,13.80
2023-05-14T12:27:30.465Z,13.74
2023-05-14T12:28:35.355Z,13.72
2023-05-14T12:29:39.309Z,13.55
2023-05-14T12:30:41.552Z,13.56
2023-05-14T12:31:48.007Z,13.58
2023-05-14T12:32:52.787Z,13.55
2023-05-14T12:33:55.411Z,13.52
2023-05-14T12:34:57.295Z,13.52
2023-05-14T12:36:09.966Z,13.60
2023-05-14T12:37:16.009Z,13.64
2023-05-14T12:38:18.077Z,13.70
2023-05-14T12:39:21.125Z,13.56
2023-05-14T12:40:23.309Z,13.69
2023-05-14T12:41:25.510Z,13.61
2023-05-14T12:42:27.438Z,13.67
2023-05-14T12:43:31.601Z,13.56
2023-05-14T12:44:33.814Z,13.49
2023-05-14T12:45:35.683Z,13.51
2023-05-14T12:46:37.849Z,13.51
2023-05-14T12:47:40.111Z,13.48
2023-05-14T12:48:42.164Z,13.46
2023-05-14T12:49:44.475Z,13.52
2023-05-14T12:50:46.514Z,13.51
2023-05-14T12:51:48.772Z,13.53
2023-05-14T12:52:51.240Z,13.47
2023-05-14T12:53:54.286Z,13.41
2023-05-14T12:54:56.635Z,13.37
2023-05-14T12:55:58.572Z,13.35
2023-05-14T12:57:00.570Z,13.36
2023-05-14T12:58:02.479Z,13.41
2023-05-14T12:59:04.651Z,13.42
2023-05-14T13:00:08.684Z,13.45
2023-05-14T13:01:10.838Z,13.60
2023-05-14T13:02:13.021Z,13.60
2023-05-14T13:03:15.798Z,13.54
2023-05-14T13:04:18.030Z,13.54
2023-05-14T13:05:20.433Z,13.57
2023-05-14T13:06:22.801Z,13.49
2023-05-14T13:07:24.853Z,13.47
2023-05-14T13:08:26.832Z,13.53
2023-05-14T13:09:28.678Z,13.46
2023-05-14T13:10:31.123Z,13.51
2023-05-14T13:11:33.501Z,13.50
2023-05-14T13:12:35.592Z,13.39
2023-05-14T13:13:37.471Z,13.47
2023-05-14T13:14:39.267Z,13.41
2023-05-14T13:15:41.739Z,13.27
2023-05-14T13:16:43.722Z,13.19
2023-05-14T13:17:45.667Z,13.33
2023-05-14T13:18:47.689Z,13.35
2023-05-14T13:19:49.567Z,13.27
2023-05-14T13:20:52.001Z,13.26
2023-05-14T13:21:53.947Z,13.28
2023-05-14T13:22:56.005Z,13.30
2023-05-14T13:23:57.845Z,13.33
2023-05-14T13:24:59.919Z,13.22
2023-05-14T13:26:02.126Z,13.22
2023-05-14T13:27:04.484Z,13.16
2023-05-14T13:28:06.678Z,13.25
2023-05-14T13:29:08.783Z,13.33
2023-05-14T13:30:11.075Z,13.34
2023-05-14T13:31:16.871Z,13.30
2023-05-14T13:32:18.760Z,13.36
2023-05-14T13:33:20.602Z,13.29